Pattingham, United Kingdom
Current Conditions -  °F | °C
As of 10:50 AM on Thursday 18 Dec 2014 (Local Time) from EGOS Reporting Station
Broken Clouds Broken Clouds  
Wind Chill: 54°   Ceiling: 1700
Heat Index: 54°   Visibility: 6mi
Dew Point: 52°   Wind: 23mph
Humidity: 94%   Direction: 220°SW
Pressure: 29.68"   Gusts: NA
Location:  52.59°N, 2.27°W
Report Text: EGOS 181050Z 22020KT 9999 FEW013 BKN017 12/11 Q1005 WHT TEMPO -RADZ SCT013 GRN
Loading
Personal Weather Stations






























Interactive Weather Map New forecast layout! Learn more

10-Day Weather Forecast

Advertisements
Track Severe Weather on mobile